sensor_id;sensor_type;location;lat;lon;timestamp;pressure;altitude;pressure_sealevel;temperature;humidity
66703;BME280;60933;46.398;-63.798;2022-12-07T00:01:07;103672.09;;;0.61;76.87
66703;BME280;60933;46.398;-63.798;2022-12-07T00:03:34;103682.47;;;0.65;76.88
66703;BME280;60933;46.398;-63.798;2022-12-07T00:06:01;103682.56;;;0.66;76.38
66703;BME280;60933;46.398;-63.798;2022-12-07T00:08:28;103670.63;;;0.65;76.35
66703;BME280;60933;46.398;-63.798;2022-12-07T00:10:55;103676.50;;;0.64;76.04
66703;BME280;60933;46.398;-63.798;2022-12-07T00:13:26;103679.25;;;0.67;76.41
66703;BME280;60933;46.398;-63.798;2022-12-07T00:15:52;103680.19;;;0.69;76.53
66703;BME280;60933;46.398;-63.798;2022-12-07T00:18:18;103666.81;;;0.72;76.61
66703;BME280;60933;46.398;-63.798;2022-12-07T00:20:44;103656.66;;;0.72;76.82
66703;BME280;60933;46.398;-63.798;2022-12-07T00:23:10;103666.91;;;0.73;76.65
66703;BME280;60933;46.398;-63.798;2022-12-07T00:25:36;103665.44;;;0.77;77.65
66703;BME280;60933;46.398;-63.798;2022-12-07T00:28:03;103653.41;;;0.74;77.63
66703;BME280;60933;46.398;-63.798;2022-12-07T00:30:33;103669.13;;;0.82;77.25
66703;BME280;60933;46.398;-63.798;2022-12-07T00:33:00;103667.56;;;0.84;77.39
66703;BME280;60933;46.398;-63.798;2022-12-07T00:35:30;103668.56;;;0.86;77.01
66703;BME280;60933;46.398;-63.798;2022-12-07T00:37:58;103663.75;;;0.91;77.59
66703;BME280;60933;46.398;-63.798;2022-12-07T00:40:25;103669.91;;;0.94;78.25
66703;BME280;60933;46.398;-63.798;2022-12-07T00:42:59;103676.06;;;0.98;77.28
66703;BME280;60933;46.398;-63.798;2022-12-07T00:45:26;103679.50;;;0.99;76.68
66703;BME280;60933;46.398;-63.798;2022-12-07T00:47:53;103677.22;;;1.03;76.96
66703;BME280;60933;46.398;-63.798;2022-12-07T00:50:20;103669.81;;;1.06;77.15
66703;BME280;60933;46.398;-63.798;2022-12-07T00:52:55;103663.91;;;1.07;77.07
66703;BME280;60933;46.398;-63.798;2022-12-07T00:55:34;103665.66;;;1.08;77.03
66703;BME280;60933;46.398;-63.798;2022-12-07T00:58:02;103662.53;;;1.13;76.86
66703;BME280;60933;46.398;-63.798;2022-12-07T01:00:28;103653.16;;;1.12;77.47
66703;BME280;60933;46.398;-63.798;2022-12-07T01:02:55;103661.75;;;1.14;76.43
66703;BME280;60933;46.398;-63.798;2022-12-07T01:05:21;103651.88;;;1.18;76.60
66703;BME280;60933;46.398;-63.798;2022-12-07T01:07:50;103652.81;;;1.20;76.76
66703;BME280;60933;46.398;-63.798;2022-12-07T01:10:16;103649.69;;;1.24;77.64
66703;BME280;60933;46.398;-63.798;2022-12-07T01:12:44;103659.38;;;1.30;77.43
66703;BME280;60933;46.398;-63.798;2022-12-07T01:15:13;103653.00;;;1.23;76.88
66703;BME280;60933;46.398;-63.798;2022-12-07T01:17:40;103669.13;;;1.37;76.11
66703;BME280;60933;46.398;-63.798;2022-12-07T01:20:08;103660.09;;;1.42;77.44
66703;BME280;60933;46.398;-63.798;2022-12-07T01:22:40;103650.91;;;1.45;77.43
66703;BME280;60933;46.398;-63.798;2022-12-07T01:25:09;103644.97;;;1.46;77.36
66703;BME280;60933;46.398;-63.798;2022-12-07T01:27:38;103644.19;;;1.47;77.82
66703;BME280;60933;46.398;-63.798;2022-12-07T01:30:06;103655.56;;;1.52;77.98
66703;BME280;60933;46.398;-63.798;2022-12-07T01:32:42;103666.69;;;1.54;77.46
66703;BME280;60933;46.398;-63.798;2022-12-07T01:35:09;103672.75;;;1.56;77.86
66703;BME280;60933;46.398;-63.798;2022-12-07T01:37:38;103679.81;;;1.60;78.49
66703;BME280;60933;46.398;-63.798;2022-12-07T01:40:07;103676.44;;;1.61;78.92
66703;BME280;60933;46.398;-63.798;2022-12-07T01:42:34;103669.09;;;1.66;79.89
66703;BME280;60933;46.398;-63.798;2022-12-07T01:47:51;103673.69;;;1.71;80.87
66703;BME280;60933;46.398;-63.798;2022-12-07T01:50:19;103667.78;;;1.72;81.21
66703;BME280;60933;46.398;-63.798;2022-12-07T01:52:48;103675.63;;;1.76;80.91
66703;BME280;60933;46.398;-63.798;2022-12-07T01:55:16;103681.59;;;1.76;80.67
66703;BME280;60933;46.398;-63.798;2022-12-07T01:57:49;103681.66;;;1.78;80.50
66703;BME280;60933;46.398;-63.798;2022-12-07T02:00:17;103681.78;;;1.79;79.80
66703;BME280;60933;46.398;-63.798;2022-12-07T02:03:09;103676.78;;;1.81;80.60
66703;BME280;60933;46.398;-63.798;2022-12-07T02:05:38;103675.97;;;1.82;80.38
66703;BME280;60933;46.398;-63.798;2022-12-07T02:08:06;103660.59;;;1.80;79.97
66703;BME280;60933;46.398;-63.798;2022-12-07T02:10:33;103653.84;;;1.81;79.81
66703;BME280;60933;46.398;-63.798;2022-12-07T02:13:06;103651.28;;;1.81;80.40
66703;BME280;60933;46.398;-63.798;2022-12-07T02:24:24;103619.06;;;1.96;81.49
66703;BME280;60933;46.398;-63.798;2022-12-07T02:30:07;103620.03;;;1.98;80.55
66703;BME280;60933;46.398;-63.798;2022-12-07T02:35:46;103630.66;;;2.06;80.85
66703;BME280;60933;46.398;-63.798;2022-12-07T02:38:14;103628.19;;;2.08;80.54
66703;BME280;60933;46.398;-63.798;2022-12-07T02:40:54;103624.84;;;2.09;81.99
66703;BME280;60933;46.398;-63.798;2022-12-07T02:43:28;103624.13;;;2.11;82.16
66703;BME280;60933;46.398;-63.798;2022-12-07T02:46:04;103619.75;;;2.09;82.17
66703;BME280;60933;46.398;-63.798;2022-12-07T02:48:34;103633.38;;;2.09;81.98
66703;BME280;60933;46.398;-63.798;2022-12-07T02:51:00;103627.84;;;2.01;81.37
66703;BME280;60933;46.398;-63.798;2022-12-07T02:53:38;103629.94;;;2.09;81.08
66703;BME280;60933;46.398;-63.798;2022-12-07T02:56:25;103620.72;;;2.11;82.20
66703;BME280;60933;46.398;-63.798;2022-12-07T03:18:12;103622.16;;;2.05;82.61
66703;BME280;60933;46.398;-63.798;2022-12-07T03:20:42;103625.75;;;2.09;82.51
66703;BME280;60933;46.398;-63.798;2022-12-07T03:23:10;103611.06;;;2.05;82.69
66703;BME280;60933;46.398;-63.798;2022-12-07T03:25:50;103625.81;;;2.11;82.95
66703;BME280;60933;46.398;-63.798;2022-12-07T03:28:20;103623.28;;;2.11;83.17
66703;BME280;60933;46.398;-63.798;2022-12-07T03:30:52;103621.50;;;2.10;83.43
66703;BME280;60933;46.398;-63.798;2022-12-07T03:33:26;103624.25;;;2.13;83.54
66703;BME280;60933;46.398;-63.798;2022-12-07T03:36:01;103612.38;;;2.13;84.21
66703;BME280;60933;46.398;-63.798;2022-12-07T03:41:06;103629.69;;;2.19;85.43
66703;BME280;60933;46.398;-63.798;2022-12-07T03:43:35;103619.41;;;2.17;85.42
66703;BME280;60933;46.398;-63.798;2022-12-07T03:49:25;103607.28;;;2.13;85.75
66703;BME280;60933;46.398;-63.798;2022-12-07T03:52:00;103587.41;;;2.08;85.69
66703;BME280;60933;46.398;-63.798;2022-12-07T03:54:30;103596.47;;;2.17;85.94
66703;BME280;60933;46.398;-63.798;2022-12-07T03:56:58;103586.88;;;2.13;86.13
66703;BME280;60933;46.398;-63.798;2022-12-07T03:59:27;103589.63;;;2.16;86.51
66703;BME280;60933;46.398;-63.798;2022-12-07T04:01:57;103593.03;;;2.17;86.39
66703;BME280;60933;46.398;-63.798;2022-12-07T04:04:24;103582.03;;;2.18;86.34
66703;BME280;60933;46.398;-63.798;2022-12-07T04:06:51;103574.41;;;2.18;86.98
66703;BME280;60933;46.398;-63.798;2022-12-07T04:09:17;103578.78;;;2.20;87.65
66703;BME280;60933;46.398;-63.798;2022-12-07T04:11:43;103572.50;;;2.14;87.72
66703;BME280;60933;46.398;-63.798;2022-12-07T04:14:09;103585.47;;;2.18;88.13
66703;BME280;60933;46.398;-63.798;2022-12-07T04:17:03;103595.75;;;2.20;88.24
66703;BME280;60933;46.398;-63.798;2022-12-07T04:19:31;103593.09;;;2.18;88.44
66703;BME280;60933;46.398;-63.798;2022-12-07T04:22:02;103593.94;;;2.17;88.31
66703;BME280;60933;46.398;-63.798;2022-12-07T04:24:29;103578.97;;;2.09;88.42
66703;BME280;60933;46.398;-63.798;2022-12-07T04:26:55;103587.78;;;2.14;88.95
66703;BME280;60933;46.398;-63.798;2022-12-07T04:29:21;103587.94;;;2.17;88.94
66703;BME280;60933;46.398;-63.798;2022-12-07T04:31:48;103583.81;;;2.19;89.17
66703;BME280;60933;46.398;-63.798;2022-12-07T04:34:15;103586.34;;;2.19;89.39
66703;BME280;60933;46.398;-63.798;2022-12-07T04:36:42;103592.25;;;2.18;89.43
66703;BME280;60933;46.398;-63.798;2022-12-07T04:39:17;103581.25;;;2.19;89.55
66703;BME280;60933;46.398;-63.798;2022-12-07T04:41:44;103580.28;;;2.17;89.71
66703;BME280;60933;46.398;-63.798;2022-12-07T04:44:11;103574.22;;;2.15;89.93
66703;BME280;60933;46.398;-63.798;2022-12-07T04:46:40;103570.09;;;2.17;89.92
66703;BME280;60933;46.398;-63.798;2022-12-07T04:49:07;103569.22;;;2.16;90.29
66703;BME280;60933;46.398;-63.798;2022-12-07T04:51:33;103570.16;;;2.18;90.29
66703;BME280;60933;46.398;-63.798;2022-12-07T04:53:59;103563.34;;;2.17;90.41
66703;BME280;60933;46.398;-63.798;2022-12-07T04:56:26;103565.97;;;2.19;90.60
66703;BME280;60933;46.398;-63.798;2022-12-07T04:58:53;103564.22;;;2.18;90.89
66703;BME280;60933;46.398;-63.798;2022-12-07T05:01:21;103555.59;;;2.16;91.03
66703;BME280;60933;46.398;-63.798;2022-12-07T05:03:47;103564.28;;;2.19;91.15
66703;BME280;60933;46.398;-63.798;2022-12-07T05:06:14;103541.91;;;2.14;90.95
66703;BME280;60933;46.398;-63.798;2022-12-07T05:08:41;103554.09;;;2.19;90.92
66703;BME280;60933;46.398;-63.798;2022-12-07T05:11:08;103551.53;;;2.19;91.33
66703;BME280;60933;46.398;-63.798;2022-12-07T05:13:34;103545.41;;;2.16;91.36
66703;BME280;60933;46.398;-63.798;2022-12-07T05:16:01;103555.78;;;2.19;91.38
66703;BME280;60933;46.398;-63.798;2022-12-07T05:18:27;103564.38;;;2.21;91.38
66703;BME280;60933;46.398;-63.798;2022-12-07T05:20:54;103561.06;;;2.22;91.55
66703;BME280;60933;46.398;-63.798;2022-12-07T05:23:20;103562.78;;;2.23;91.66
66703;BME280;60933;46.398;-63.798;2022-12-07T05:25:46;103562.09;;;2.26;91.65
66703;BME280;60933;46.398;-63.798;2022-12-07T05:28:12;103555.31;;;2.26;91.67
66703;BME280;60933;46.398;-63.798;2022-12-07T05:30:38;103554.44;;;2.26;91.86
66703;BME280;60933;46.398;-63.798;2022-12-07T05:33:04;103548.53;;;2.27;91.96
66703;BME280;60933;46.398;-63.798;2022-12-07T05:35:30;103549.44;;;2.27;91.95
66703;BME280;60933;46.398;-63.798;2022-12-07T05:37:56;103539.06;;;2.24;92.24
66703;BME280;60933;46.398;-63.798;2022-12-07T05:40:23;103551.00;;;2.25;92.09
66703;BME280;60933;46.398;-63.798;2022-12-07T05:42:50;103551.91;;;2.26;92.03
66703;BME280;60933;46.398;-63.798;2022-12-07T05:45:16;103545.75;;;2.22;92.42
66703;BME280;60933;46.398;-63.798;2022-12-07T05:47:42;103547.41;;;2.21;92.45
66703;BME280;60933;46.398;-63.798;2022-12-07T05:50:08;103543.28;;;2.24;92.45
66703;BME280;60933;46.398;-63.798;2022-12-07T05:52:34;103538.13;;;2.22;92.56
66703;BME280;60933;46.398;-63.798;2022-12-07T05:55:00;103533.81;;;2.21;92.40
66703;BME280;60933;46.398;-63.798;2022-12-07T05:57:26;103534.66;;;2.21;92.50
66703;BME280;60933;46.398;-63.798;2022-12-07T05:59:52;103528.72;;;2.21;92.74
66703;BME280;60933;46.398;-63.798;2022-12-07T06:02:18;103525.19;;;2.19;92.70
66703;BME280;60933;46.398;-63.798;2022-12-07T06:04:46;103533.81;;;2.21;92.75
66703;BME280;60933;46.398;-63.798;2022-12-07T06:07:14;103531.94;;;2.18;92.81
66703;BME280;60933;46.398;-63.798;2022-12-07T06:09:40;103528.53;;;2.18;92.77
66703;BME280;60933;46.398;-63.798;2022-12-07T06:12:09;103531.16;;;2.19;93.10
66703;BME280;60933;46.398;-63.798;2022-12-07T06:14:54;103534.59;;;2.20;93.40
66703;BME280;60933;46.398;-63.798;2022-12-07T06:17:20;103538.72;;;2.18;93.45
66703;BME280;60933;46.398;-63.798;2022-12-07T06:19:46;103548.19;;;2.20;93.24
66703;BME280;60933;46.398;-63.798;2022-12-07T06:22:12;103544.88;;;2.21;93.18
66703;BME280;60933;46.398;-63.798;2022-12-07T06:24:39;103535.38;;;2.19;93.34
66703;BME280;60933;46.398;-63.798;2022-12-07T06:27:06;103528.53;;;2.18;93.37
66703;BME280;60933;46.398;-63.798;2022-12-07T06:29:32;103527.81;;;2.20;93.28
66703;BME280;60933;46.398;-63.798;2022-12-07T06:31:58;103523.59;;;2.21;93.56
66703;BME280;60933;46.398;-63.798;2022-12-07T06:34:26;103519.19;;;2.18;93.67
66703;BME280;60933;46.398;-63.798;2022-12-07T06:36:53;103539.75;;;2.21;93.94
66703;BME280;60933;46.398;-63.798;2022-12-07T06:39:25;103527.09;;;2.23;93.83
66703;BME280;60933;46.398;-63.798;2022-12-07T06:41:52;103532.31;;;2.25;93.61
66703;BME280;60933;46.398;-63.798;2022-12-07T06:44:19;103529.66;;;2.23;93.65
66703;BME280;60933;46.398;-63.798;2022-12-07T06:46:46;103529.75;;;2.25;93.66
66703;BME280;60933;46.398;-63.798;2022-12-07T06:49:12;103521.22;;;2.24;93.78
66703;BME280;60933;46.398;-63.798;2022-12-07T06:51:38;103526.41;;;2.26;94.06
66703;BME280;60933;46.398;-63.798;2022-12-07T06:54:10;103521.22;;;2.24;93.85
66703;BME280;60933;46.398;-63.798;2022-12-07T06:56:37;103515.84;;;2.19;93.60
66703;BME280;60933;46.398;-63.798;2022-12-07T06:59:04;103527.28;;;2.26;93.84
66703;BME280;60933;46.398;-63.798;2022-12-07T07:01:33;103529.03;;;2.27;93.72
66703;BME280;60933;46.398;-63.798;2022-12-07T07:03:59;103529.03;;;2.27;93.89
66703;BME280;60933;46.398;-63.798;2022-12-07T07:06:25;103522.25;;;2.28;93.91
66703;BME280;60933;46.398;-63.798;2022-12-07T07:08:52;103522.19;;;2.26;93.89
66703;BME280;60933;46.398;-63.798;2022-12-07T07:11:18;103517.94;;;2.27;93.93
66703;BME280;60933;46.398;-63.798;2022-12-07T07:13:44;103520.59;;;2.28;93.85
66703;BME280;60933;46.398;-63.798;2022-12-07T07:16:12;103524.00;;;2.29;94.06
66703;BME280;60933;46.398;-63.798;2022-12-07T07:18:38;103521.63;;;2.32;93.95
66703;BME280;60933;46.398;-63.798;2022-12-07T07:21:04;103529.34;;;2.33;93.84
66703;BME280;60933;46.398;-63.798;2022-12-07T07:23:30;103530.34;;;2.35;93.97
66703;BME280;60933;46.398;-63.798;2022-12-07T07:25:57;103527.59;;;2.32;94.23
66703;BME280;60933;46.398;-63.798;2022-12-07T07:28:23;103541.56;;;2.39;94.12
66703;BME280;60933;46.398;-63.798;2022-12-07T07:30:49;103544.13;;;2.39;94.19
66703;BME280;60933;46.398;-63.798;2022-12-07T07:33:15;103542.63;;;2.43;94.18
66703;BME280;60933;46.398;-63.798;2022-12-07T07:35:41;103547.72;;;2.43;94.41
66703;BME280;60933;46.398;-63.798;2022-12-07T07:38:07;103541.81;;;2.44;94.15
66703;BME280;60933;46.398;-63.798;2022-12-07T07:40:34;103547.78;;;2.44;94.19
66703;BME280;60933;46.398;-63.798;2022-12-07T07:43:00;103552.81;;;2.43;94.32
66703;BME280;60933;46.398;-63.798;2022-12-07T07:45:26;103563.09;;;2.44;94.31
66703;BME280;60933;46.398;-63.798;2022-12-07T07:47:53;103557.91;;;2.43;94.19
66703;BME280;60933;46.398;-63.798;2022-12-07T07:50:19;103556.94;;;2.41;94.06
66703;BME280;60933;46.398;-63.798;2022-12-07T07:52:46;103559.50;;;2.41;94.22
66703;BME280;60933;46.398;-63.798;2022-12-07T07:55:12;103554.38;;;2.41;94.21
66703;BME280;60933;46.398;-63.798;2022-12-07T07:57:39;103545.09;;;2.41;94.40
66703;BME280;60933;46.398;-63.798;2022-12-07T08:00:08;103541.66;;;2.41;94.30
66703;BME280;60933;46.398;-63.798;2022-12-07T08:02:35;103537.25;;;2.38;94.18
66703;BME280;60933;46.398;-63.798;2022-12-07T08:05:01;103540.94;;;2.43;94.26
66703;BME280;60933;46.398;-63.798;2022-12-07T08:07:27;103537.59;;;2.44;94.63
66703;BME280;60933;46.398;-63.798;2022-12-07T08:09:54;103530.91;;;2.46;94.40
66703;BME280;60933;46.398;-63.798;2022-12-07T08:12:20;103518.94;;;2.45;94.30
66703;BME280;60933;46.398;-63.798;2022-12-07T08:14:46;103498.56;;;2.45;94.52
66703;BME280;60933;46.398;-63.798;2022-12-07T08:17:12;103502.94;;;2.48;94.42
66703;BME280;60933;46.398;-63.798;2022-12-07T08:19:38;103492.00;;;2.50;94.54
66703;BME280;60933;46.398;-63.798;2022-12-07T08:22:04;103480.06;;;2.49;94.53
66703;BME280;60933;46.398;-63.798;2022-12-07T08:24:33;103484.53;;;2.53;94.56
66703;BME280;60933;46.398;-63.798;2022-12-07T08:27:00;103483.50;;;2.50;94.42
66703;BME280;60933;46.398;-63.798;2022-12-07T08:29:26;103491.53;;;2.58;94.77
66703;BME280;60933;46.398;-63.798;2022-12-07T08:31:52;103500.88;;;2.57;94.73
66703;BME280;60933;46.398;-63.798;2022-12-07T08:34:18;103501.91;;;2.61;94.69
66703;BME280;60933;46.398;-63.798;2022-12-07T08:36:44;103500.22;;;2.61;94.55
66703;BME280;60933;46.398;-63.798;2022-12-07T08:39:11;103493.53;;;2.63;94.93
66703;BME280;60933;46.398;-63.798;2022-12-07T08:41:37;103495.31;;;2.64;94.67
66703;BME280;60933;46.398;-63.798;2022-12-07T08:44:03;103495.47;;;2.67;94.60
66703;BME280;60933;46.398;-63.798;2022-12-07T08:49:22;103495.53;;;2.69;94.61
66703;BME280;60933;46.398;-63.798;2022-12-07T08:51:50;103478.78;;;2.58;94.75
66703;BME280;60933;46.398;-63.798;2022-12-07T08:54:17;103504.41;;;2.76;94.80
66703;BME280;60933;46.398;-63.798;2022-12-07T08:56:44;103495.94;;;2.77;94.73
66703;BME280;60933;46.398;-63.798;2022-12-07T08:59:14;103499.63;;;2.82;95.02
66703;BME280;60933;46.398;-63.798;2022-12-07T09:01:42;103499.69;;;2.83;95.31
66703;BME280;60933;46.398;-63.798;2022-12-07T09:04:09;103494.97;;;2.91;95.27
66703;BME280;60933;46.398;-63.798;2022-12-07T09:06:35;103481.34;;;2.91;95.20
66703;BME280;60933;46.398;-63.798;2022-12-07T09:09:01;103487.53;;;2.96;95.47
66703;BME280;60933;46.398;-63.798;2022-12-07T09:11:29;103491.22;;;3.01;95.45
66703;BME280;60933;46.398;-63.798;2022-12-07T09:13:55;103498.94;;;3.03;95.54
66703;BME280;60933;46.398;-63.798;2022-12-07T09:16:21;103499.13;;;3.06;95.62
66703;BME280;60933;46.398;-63.798;2022-12-07T09:18:47;103482.03;;;3.05;95.58
66703;BME280;60933;46.398;-63.798;2022-12-07T09:21:13;103489.94;;;3.09;95.75
66703;BME280;60933;46.398;-63.798;2022-12-07T09:23:41;103490.25;;;3.15;96.00
66703;BME280;60933;46.398;-63.798;2022-12-07T09:26:08;103487.75;;;3.17;95.91
66703;BME280;60933;46.398;-63.798;2022-12-07T09:28:34;103495.47;;;3.19;95.96
66703;BME280;60933;46.398;-63.798;2022-12-07T09:31:00;103492.22;;;3.21;96.02
66703;BME280;60933;46.398;-63.798;2022-12-07T09:33:26;103489.69;;;3.21;96.12
66703;BME280;60933;46.398;-63.798;2022-12-07T09:35:52;103483.63;;;3.19;96.30
66703;BME280;60933;46.398;-63.798;2022-12-07T09:38:19;103483.84;;;3.24;96.26
66703;BME280;60933;46.398;-63.798;2022-12-07T09:40:46;103478.63;;;3.22;96.30
66703;BME280;60933;46.398;-63.798;2022-12-07T09:43:23;103484.78;;;3.26;96.25
66703;BME280;60933;46.398;-63.798;2022-12-07T09:45:54;103469.38;;;3.24;96.37
66703;BME280;60933;46.398;-63.798;2022-12-07T09:48:39;103466.03;;;3.25;96.23
66703;BME280;60933;46.398;-63.798;2022-12-07T09:51:22;103455.84;;;3.25;96.40
66703;BME280;60933;46.398;-63.798;2022-12-07T09:53:49;103444.53;;;3.20;96.19
66703;BME280;60933;46.398;-63.798;2022-12-07T09:56:17;103433.34;;;3.18;96.37
66703;BME280;60933;46.398;-63.798;2022-12-07T09:58:44;103434.53;;;3.25;96.73
66703;BME280;60933;46.398;-63.798;2022-12-07T10:01:15;103431.25;;;3.27;96.44
66703;BME280;60933;46.398;-63.798;2022-12-07T10:10:30;103423.88;;;3.33;96.65
66703;BME280;60933;46.398;-63.798;2022-12-07T10:13:11;103418.78;;;3.33;96.67
66703;BME280;60933;46.398;-63.798;2022-12-07T10:16:57;103417.09;;;3.34;96.68
66703;BME280;60933;46.398;-63.798;2022-12-07T10:19:27;103412.72;;;3.31;96.55
66703;BME280;60933;46.398;-63.798;2022-12-07T10:22:16;103409.31;;;3.31;96.44
66703;BME280;60933;46.398;-63.798;2022-12-07T10:24:46;103408.41;;;3.30;96.54
66703;BME280;60933;46.398;-63.798;2022-12-07T10:27:25;103400.69;;;3.29;96.67
66703;BME280;60933;46.398;-63.798;2022-12-07T10:29:53;103400.63;;;3.27;96.50
66703;BME280;60933;46.398;-63.798;2022-12-07T10:34:45;103406.53;;;3.26;96.33
66703;BME280;60933;46.398;-63.798;2022-12-07T10:42:18;103398.34;;;3.15;96.08
66703;BME280;60933;46.398;-63.798;2022-12-07T10:44:46;103403.47;;;3.15;96.09
66703;BME280;60933;46.398;-63.798;2022-12-07T10:53:17;103397.72;;;3.03;96.05
66703;BME280;60933;46.398;-63.798;2022-12-07T11:04:41;103384.78;;;2.98;96.02
66703;BME280;60933;46.398;-63.798;2022-12-07T11:07:21;103373.44;;;2.93;95.72
66703;BME280;60933;46.398;-63.798;2022-12-07T11:12:47;103375.88;;;2.90;95.95
66703;BME280;60933;46.398;-63.798;2022-12-07T11:23:30;103388.94;;;2.80;95.76
66703;BME280;60933;46.398;-63.798;2022-12-07T11:26:07;103383.84;;;2.80;95.57
66703;BME280;60933;46.398;-63.798;2022-12-07T11:36:54;103380.28;;;2.76;95.38
66703;BME280;60933;46.398;-63.798;2022-12-07T11:39:28;103374.13;;;2.73;95.52
66703;BME280;60933;46.398;-63.798;2022-12-07T11:42:29;103383.00;;;2.79;95.52
66703;BME280;60933;46.398;-63.798;2022-12-07T11:45:02;103382.25;;;2.82;95.70
66703;BME280;60933;46.398;-63.798;2022-12-07T11:47:59;103378.75;;;2.80;95.47
66703;BME280;60933;46.398;-63.798;2022-12-07T11:59:00;103379.03;;;2.86;95.35
66703;BME280;60933;46.398;-63.798;2022-12-07T12:02:11;103353.97;;;2.77;95.35
66703;BME280;60933;46.398;-63.798;2022-12-07T12:04:57;103365.72;;;2.92;95.25
66703;BME280;60933;46.398;-63.798;2022-12-07T12:07:26;103374.41;;;2.95;95.48
66703;BME280;60933;46.398;-63.798;2022-12-07T12:10:06;103356.47;;;2.94;95.40
66703;BME280;60933;46.398;-63.798;2022-12-07T12:18:14;103364.78;;;3.08;95.14
66703;BME280;60933;46.398;-63.798;2022-12-07T12:21:30;103369.25;;;3.12;95.08
66703;BME280;60933;46.398;-63.798;2022-12-07T12:24:04;103358.38;;;3.16;95.10
66703;BME280;60933;46.398;-63.798;2022-12-07T12:26:33;103351.84;;;3.21;95.11
66703;BME280;60933;46.398;-63.798;2022-12-07T12:29:18;103357.13;;;3.26;95.04
66703;BME280;60933;46.398;-63.798;2022-12-07T12:31:47;103370.13;;;3.30;94.90
66703;BME280;60933;46.398;-63.798;2022-12-07T12:37:39;103367.16;;;3.39;94.86
66703;BME280;60933;46.398;-63.798;2022-12-07T12:42:49;103368.16;;;3.43;94.83
66703;BME280;60933;46.398;-63.798;2022-12-07T12:45:36;103370.13;;;3.48;94.84
66703;BME280;60933;46.398;-63.798;2022-12-07T12:54:14;103374.72;;;3.56;94.64
66703;BME280;60933;46.398;-63.798;2022-12-07T12:57:29;103371.50;;;3.60;94.59
66703;BME280;60933;46.398;-63.798;2022-12-07T13:02:36;103354.84;;;3.68;94.41
66703;BME280;60933;46.398;-63.798;2022-12-07T13:29:03;103323.03;;;4.40;94.44
66703;BME280;60933;46.398;-63.798;2022-12-07T13:31:35;103320.69;;;4.44;93.89
66703;BME280;60933;46.398;-63.798;2022-12-07T13:34:03;103308.50;;;4.39;93.77
66703;BME280;60933;46.398;-63.798;2022-12-07T13:36:38;103326.94;;;4.51;93.67
66703;BME280;60933;46.398;-63.798;2022-12-07T13:39:33;103322.94;;;4.58;93.66
66703;BME280;60933;46.398;-63.798;2022-12-07T13:42:11;103326.50;;;4.62;93.72
66703;BME280;60933;46.398;-63.798;2022-12-07T13:44:41;103328.44;;;4.67;93.71
66703;BME280;60933;46.398;-63.798;2022-12-07T13:49:51;103320.25;;;4.76;93.41
66703;BME280;60933;46.398;-63.798;2022-12-07T13:52:19;103328.19;;;4.82;93.33
66703;BME280;60933;46.398;-63.798;2022-12-07T13:54:48;103321.38;;;4.83;93.08
66703;BME280;60933;46.398;-63.798;2022-12-07T13:57:16;103312.19;;;4.88;93.09
66703;BME280;60933;46.398;-63.798;2022-12-07T13:59:43;103308.88;;;4.90;92.80
66703;BME280;60933;46.398;-63.798;2022-12-07T14:02:20;103307.41;;;4.96;92.92
66703;BME280;60933;46.398;-63.798;2022-12-07T14:04:49;103299.91;;;5.00;92.75
66703;BME280;60933;46.398;-63.798;2022-12-07T14:07:27;103289.84;;;5.05;92.14
66703;BME280;60933;46.398;-63.798;2022-12-07T14:10:04;103284.06;;;5.11;92.32
66703;BME280;60933;46.398;-63.798;2022-12-07T14:12:32;103280.19;;;5.20;91.88
66703;BME280;60933;46.398;-63.798;2022-12-07T14:14:59;103271.13;;;5.29;92.30
66703;BME280;60933;46.398;-63.798;2022-12-07T14:17:27;103264.56;;;5.37;91.41
66703;BME280;60933;46.398;-63.798;2022-12-07T14:19:56;103270.84;;;5.45;91.45
66703;BME280;60933;46.398;-63.798;2022-12-07T14:24:50;103247.97;;;5.50;90.97
66703;BME280;60933;46.398;-63.798;2022-12-07T14:27:22;103260.34;;;5.62;90.50
66703;BME280;60933;46.398;-63.798;2022-12-07T14:29:51;103253.59;;;5.64;90.13
66703;BME280;60933;46.398;-63.798;2022-12-07T14:32:28;103247.88;;;5.71;89.88
66703;BME280;60933;46.398;-63.798;2022-12-07T14:35:10;103253.13;;;5.74;90.04
66703;BME280;60933;46.398;-63.798;2022-12-07T14:37:37;103256.59;;;5.76;89.45
66703;BME280;60933;46.398;-63.798;2022-12-07T14:40:05;103243.78;;;5.76;89.56
66703;BME280;60933;46.398;-63.798;2022-12-07T14:42:32;103243.00;;;5.79;89.34
66703;BME280;60933;46.398;-63.798;2022-12-07T14:45:02;103244.94;;;5.84;89.05
66703;BME280;60933;46.398;-63.798;2022-12-07T14:47:28;103245.81;;;5.85;88.95
66703;BME280;60933;46.398;-63.798;2022-12-07T14:49:54;103235.56;;;5.85;88.48
66703;BME280;60933;46.398;-63.798;2022-12-07T14:52:24;103227.91;;;5.86;88.11
66703;BME280;60933;46.398;-63.798;2022-12-07T14:54:52;103215.16;;;5.88;88.16
66703;BME280;60933;46.398;-63.798;2022-12-07T14:57:19;103220.34;;;5.90;88.25
66703;BME280;60933;46.398;-63.798;2022-12-07T14:59:45;103211.88;;;5.92;87.57
66703;BME280;60933;46.398;-63.798;2022-12-07T15:02:13;103207.72;;;5.96;87.75
66703;BME280;60933;46.398;-63.798;2022-12-07T15:04:39;103191.56;;;5.98;87.41
66703;BME280;60933;46.398;-63.798;2022-12-07T15:07:20;103181.50;;;6.03;87.18
66703;BME280;60933;46.398;-63.798;2022-12-07T15:09:47;103183.34;;;6.07;87.21
66703;BME280;60933;46.398;-63.798;2022-12-07T15:12:14;103172.28;;;6.08;86.45
66703;BME280;60933;46.398;-63.798;2022-12-07T15:14:40;103180.97;;;6.13;86.20
66703;BME280;60933;46.398;-63.798;2022-12-07T15:17:10;103173.19;;;6.10;86.49
66703;BME280;60933;46.398;-63.798;2022-12-07T15:19:37;103187.97;;;6.17;85.91
66703;BME280;60933;46.398;-63.798;2022-12-07T15:22:03;103184.63;;;6.20;85.84
66703;BME280;60933;46.398;-63.798;2022-12-07T15:24:30;103175.34;;;6.24;85.47
66703;BME280;60933;46.398;-63.798;2022-12-07T15:26:56;103173.69;;;6.26;85.48